Polis, Cyprus
Current Conditions -  °F | °C
As of 11:30 PM on Thursday 23 Oct 2014 (Local Time) from LCPH Reporting Station
Scattered Clouds Scattered Clouds  
Wind Chill: 21°   Ceiling: Unl
Heat Index: 21°   Visibility: 6mi
Dew Point: 17°   Wind: 9mph
Humidity: 78%   Direction: 70°ENE
Pressure: 29.97"   Gusts: NA
Location:  35.03°N, 32.41°E
Report Text: LCPH 232030Z 07008KT 9999 SCT027 21/17 Q1015
Loading
Personal Weather Stations






























Interactive Weather Map
Tropical Storm Tracking
New forecast layout! Learn more

10-Day Weather Forecast

Advertisements
Track Severe Weather on mobile